createdAt,value
2022-11-18T00:01:38.904Z,3.08
2022-11-18T00:06:25.918Z,2.20
2022-11-18T00:11:33.576Z,2.40
2022-11-18T00:16:21.738Z,2.45
2022-11-18T00:21:08.334Z,2.88
2022-11-18T00:25:53.685Z,2.50
2022-11-18T00:30:38.673Z,2.50
2022-11-18T00:35:28.306Z,1.80
2022-11-18T00:40:14.770Z,1.98
2022-11-18T00:45:00.110Z,2.95
2022-11-18T00:49:45.135Z,2.20
2022-11-18T00:54:33.043Z,2.00
2022-11-18T00:59:18.293Z,2.58
2022-11-18T01:04:04.984Z,1.80
2022-11-18T01:08:50.250Z,1.70
2022-11-18T01:13:38.117Z,1.95
2022-11-18T01:18:25.756Z,2.65
2022-11-18T01:23:11.065Z,2.10
2022-11-18T01:27:56.291Z,2.05
2022-11-18T01:32:44.190Z,2.10
2022-11-18T01:37:29.183Z,1.90
2022-11-18T01:42:17.769Z,2.63
2022-11-18T01:47:02.805Z,1.40
2022-11-18T01:51:54.358Z,0.68
2022-11-18T01:56:45.155Z,0.90
2022-11-18T02:01:30.614Z,0.60
2022-11-18T02:06:17.020Z,0.98
2022-11-18T02:11:05.009Z,1.55
2022-11-18T02:15:59.805Z,0.70
2022-11-18T02:20:47.209Z,0.90
2022-11-18T02:25:43.126Z,0.93
2022-11-18T02:30:35.268Z,1.35
2022-11-18T02:35:28.543Z,1.98
2022-11-18T02:40:17.953Z,2.50
2022-11-18T02:45:09.036Z,1.95
2022-11-18T02:50:00.953Z,2.22
2022-11-18T02:54:50.326Z,2.00
2022-11-18T02:59:35.753Z,1.92
2022-11-18T03:04:21.976Z,1.40
2022-11-18T03:09:17.261Z,2.05
2022-11-18T03:14:17.534Z,2.35
2022-11-18T03:19:10.442Z,2.25
2022-11-18T03:24:02.617Z,2.30
2022-11-18T03:28:56.521Z,2.55
2022-11-18T03:33:46.441Z,1.48
2022-11-18T03:38:36.959Z,1.65
2022-11-18T03:43:26.958Z,1.15
2022-11-18T03:48:18.994Z,1.42
2022-11-18T03:53:06.032Z,2.00
2022-11-18T03:57:57.564Z,1.33
2022-11-18T04:02:43.235Z,2.10
2022-11-18T04:07:36.137Z,2.13
2022-11-18T04:12:24.254Z,1.67
2022-11-18T04:17:12.313Z,1.25
2022-11-18T04:21:57.369Z,1.25
2022-11-18T04:26:45.246Z,1.27
2022-11-18T04:31:30.358Z,0.80
2022-11-18T04:36:15.689Z,1.52
2022-11-18T04:41:00.866Z,1.52
2022-11-18T04:45:48.790Z,1.48
2022-11-18T04:50:33.815Z,2.22
2022-11-18T04:55:20.604Z,2.08
2022-11-18T05:00:05.960Z,1.80
2022-11-18T05:04:54.422Z,2.50
2022-11-18T05:09:39.454Z,2.47
2022-11-18T05:14:24.839Z,2.65
2022-11-18T05:19:10.124Z,2.20
2022-11-18T05:23:58.033Z,2.17
2022-11-18T05:28:43.129Z,2.40
2022-11-18T05:33:28.718Z,2.28
2022-11-18T05:38:13.853Z,2.38
2022-11-18T05:43:16.773Z,2.90
2022-11-18T05:48:05.002Z,2.20
2022-11-18T05:52:50.084Z,1.80
2022-11-18T05:57:35.359Z,5.70
2022-11-18T06:02:26.832Z,5.72
2022-11-18T06:07:16.884Z,5.32
2022-11-18T06:12:04.689Z,5.40
2022-11-18T06:16:54.893Z,6.88
2022-11-18T06:21:42.798Z,11.63
2022-11-18T06:26:28.132Z,8.50
2022-11-18T06:31:13.430Z,7.32
2022-11-18T06:35:58.482Z,7.82
2022-11-18T06:40:46.372Z,6.95
2022-11-18T06:45:31.410Z,5.95
2022-11-18T06:50:17.054Z,6.65
2022-11-18T06:55:02.312Z,10.85
2022-11-18T06:59:50.020Z,13.65
2022-11-18T07:04:39.628Z,3.08
2022-11-18T07:09:24.854Z,3.80
2022-11-18T07:14:10.202Z,9.48
2022-11-18T07:18:58.954Z,5.07
2022-11-18T07:23:44.587Z,3.30
2022-11-18T07:28:30.807Z,3.97
2022-11-18T07:33:16.050Z,4.72
2022-11-18T07:38:03.644Z,7.13
2022-11-18T07:42:48.943Z,18.80
2022-11-18T07:47:37.098Z,20.90
2022-11-18T07:52:22.565Z,12.27
2022-11-18T07:57:10.492Z,17.67
2022-11-18T08:01:55.577Z,9.55
2022-11-18T08:06:41.591Z,8.95
2022-11-18T08:11:26.685Z,14.45
2022-11-18T08:16:19.742Z,11.60
2022-11-18T08:21:06.468Z,10.60
2022-11-18T08:25:51.762Z,15.27
2022-11-18T08:30:38.037Z,20.25
2022-11-18T08:35:25.675Z,14.38
2022-11-18T08:40:12.343Z,11.25
2022-11-18T08:44:57.680Z,13.07
2022-11-18T08:49:42.985Z,7.53
2022-11-18T08:54:31.774Z,22.27
2022-11-18T08:59:17.387Z,8.45
2022-11-18T09:04:02.529Z,7.93
2022-11-18T09:08:48.156Z,6.65
2022-11-18T09:18:41.081Z,10.38
2022-11-18T09:23:26.140Z,8.48
2022-11-18T09:28:11.490Z,12.00
2022-11-18T09:32:59.917Z,10.85
2022-11-18T09:37:45.257Z,28.42
2022-11-18T09:42:44.297Z,14.77
2022-11-18T09:47:31.756Z,7.80
2022-11-18T09:52:24.233Z,10.80
2022-11-18T09:57:17.484Z,13.15
2022-11-18T10:02:18.405Z,17.38
2022-11-18T10:07:09.710Z,9.02
2022-11-18T10:12:14.654Z,12.43
2022-11-18T10:17:07.738Z,12.85
2022-11-18T10:22:03.589Z,5.10
2022-11-18T10:26:49.255Z,3.17
2022-11-18T10:31:40.406Z,25.90
2022-11-18T10:36:30.921Z,8.95
2022-11-18T10:41:18.265Z,4.90
2022-11-18T10:46:19.492Z,5.55
2022-11-18T10:51:25.107Z,4.50
2022-11-18T10:56:16.128Z,16.73
2022-11-18T11:01:09.484Z,12.25
2022-11-18T11:06:25.875Z,16.05
2022-11-18T11:11:26.454Z,6.88
2022-11-18T11:16:25.988Z,4.15
2022-11-18T11:21:15.408Z,6.70
2022-11-18T11:31:20.956Z,3.38
2022-11-18T11:36:33.775Z,4.35
2022-11-18T11:41:26.407Z,4.40
2022-11-18T11:46:29.858Z,4.10
2022-11-18T11:51:23.115Z,3.58
2022-11-18T11:56:22.620Z,3.30
2022-11-18T12:01:19.539Z,2.50
2022-11-18T12:06:04.814Z,3.33
2022-11-18T12:10:53.598Z,2.75
2022-11-18T12:15:47.878Z,2.97
2022-11-18T12:20:47.308Z,2.53
2022-11-18T12:25:55.754Z,2.97
2022-11-18T12:30:41.109Z,4.03
2022-11-18T12:35:30.319Z,2.42
2022-11-18T12:40:52.711Z,1.88
2022-11-18T12:45:59.137Z,1.90
2022-11-18T12:50:52.807Z,2.20
2022-11-18T12:55:41.647Z,1.92
2022-11-18T13:00:52.877Z,1.70
2022-11-18T13:05:38.815Z,2.17
2022-11-18T13:10:29.034Z,2.25
2022-11-18T13:15:27.993Z,2.30
2022-11-18T13:20:31.495Z,2.72
2022-11-18T13:25:27.574Z,2.25
2022-11-18T13:30:15.242Z,1.83
2022-11-18T13:35:06.002Z,2.40
2022-11-18T13:39:54.207Z,2.45
2022-11-18T13:44:40.965Z,1.90
2022-11-18T13:49:39.954Z,2.25
2022-11-18T13:54:29.833Z,2.38
2022-11-18T13:59:22.862Z,1.73
2022-11-18T14:04:10.516Z,1.90
2022-11-18T14:09:08.911Z,1.98
2022-11-18T14:13:57.807Z,2.10
2022-11-18T14:18:49.189Z,2.45
2022-11-18T14:23:36.624Z,2.10
2022-11-18T14:28:26.238Z,2.00
2022-11-18T14:33:20.704Z,2.33
2022-11-18T14:43:20.030Z,1.92
2022-11-18T14:48:05.215Z,1.95
2022-11-18T14:52:50.511Z,1.58
2022-11-18T14:57:38.375Z,1.83
2022-11-18T15:02:23.548Z,2.45
2022-11-18T15:07:08.910Z,2.17
2022-11-18T15:11:53.912Z,2.63
2022-11-18T15:16:41.812Z,5.22
2022-11-18T15:21:27.904Z,8.27
2022-11-18T15:26:22.895Z,6.35
2022-11-18T15:31:08.266Z,4.25
2022-11-18T15:35:56.180Z,5.22
2022-11-18T15:40:41.246Z,7.13
2022-11-18T15:45:26.527Z,9.10
2022-11-18T15:50:12.951Z,7.00
2022-11-18T15:55:03.046Z,7.45
2022-11-18T15:59:49.024Z,3.35
2022-11-18T16:04:34.338Z,4.50
2022-11-18T16:09:20.122Z,14.63
2022-11-18T16:14:09.369Z,14.35
2022-11-18T16:18:57.066Z,3.35
2022-11-18T16:23:42.463Z,2.83
2022-11-18T16:28:27.447Z,1.90
2022-11-18T16:33:15.387Z,2.53
2022-11-18T16:38:00.501Z,2.85
2022-11-18T16:42:45.764Z,1.98
2022-11-18T16:47:30.779Z,2.30
2022-11-18T16:52:18.690Z,6.88
2022-11-18T16:57:03.942Z,3.78
2022-11-18T17:01:49.018Z,4.13
2022-11-18T17:06:34.951Z,6.03
2022-11-18T17:11:22.956Z,6.28
2022-11-18T17:16:10.011Z,12.85
2022-11-18T17:20:55.004Z,12.60
2022-11-18T17:25:40.280Z,13.63
2022-11-18T17:30:28.479Z,21.58
2022-11-18T17:35:13.479Z,22.50
2022-11-18T17:39:58.793Z,29.63
2022-11-18T17:44:43.864Z,26.08
2022-11-18T17:49:31.776Z,13.98
2022-11-18T17:54:17.731Z,23.90
2022-11-18T17:59:03.326Z,10.60
2022-11-18T18:03:48.340Z,11.65
2022-11-18T18:08:36.396Z,8.93
2022-11-18T18:13:33.970Z,4.00
2022-11-18T18:18:19.292Z,1.70
2022-11-18T18:23:04.591Z,1.85
2022-11-18T18:27:52.389Z,2.13
2022-11-18T18:32:38.102Z,1.73
2022-11-18T18:37:23.123Z,1.95
2022-11-18T18:42:08.491Z,2.78
2022-11-18T18:46:56.082Z,6.32
2022-11-18T18:51:43.008Z,5.20
2022-11-18T18:56:28.574Z,5.97
2022-11-18T19:01:15.666Z,14.65
2022-11-18T19:06:41.478Z,14.45
2022-11-18T19:11:09.403Z,8.13
2022-11-18T19:15:54.565Z,10.27
2022-11-18T19:20:39.880Z,7.50
2022-11-18T19:25:27.817Z,9.15
2022-11-18T19:30:14.654Z,8.45
2022-11-18T19:34:59.894Z,10.98
2022-11-18T19:39:44.959Z,12.35
2022-11-18T19:44:32.883Z,12.20
2022-11-18T19:49:18.354Z,11.90
2022-11-18T19:54:03.979Z,9.60
2022-11-18T19:58:50.381Z,11.07
2022-11-18T20:03:41.603Z,12.27
2022-11-18T20:08:28.071Z,11.50
2022-11-18T20:13:13.395Z,11.38
2022-11-18T20:17:58.367Z,15.23
2022-11-18T20:22:46.432Z,17.17
2022-11-18T20:27:31.483Z,18.63
2022-11-18T20:32:18.412Z,15.70
2022-11-18T20:37:03.478Z,11.40
2022-11-18T20:42:06.272Z,9.18
2022-11-18T20:46:51.667Z,4.03
2022-11-18T20:51:36.731Z,3.08
2022-11-18T20:56:24.011Z,1.85
2022-11-18T21:01:17.149Z,1.90
2022-11-18T21:06:13.858Z,1.40
2022-11-18T21:11:03.504Z,3.50
2022-11-18T21:15:48.879Z,3.65
2022-11-18T21:20:48.806Z,3.10
2022-11-18T21:25:34.084Z,2.35
2022-11-18T21:30:19.776Z,4.57
2022-11-18T21:35:05.275Z,1.58
2022-11-18T21:39:52.960Z,4.60
2022-11-18T21:44:38.256Z,2.25
2022-11-18T21:49:23.509Z,2.47
2022-11-18T21:54:09.397Z,1.60
2022-11-18T21:58:59.389Z,2.10
2022-11-18T22:03:50.904Z,2.58
2022-11-18T22:08:41.452Z,2.40
2022-11-18T22:13:27.973Z,1.70
2022-11-18T22:18:15.587Z,4.82
2022-11-18T22:23:00.885Z,3.03
2022-11-18T22:27:45.911Z,5.45
2022-11-18T22:32:31.656Z,3.75
2022-11-18T22:37:19.312Z,2.92
2022-11-18T22:42:16.923Z,7.07
2022-11-18T22:47:01.937Z,2.67
2022-11-18T22:51:47.248Z,1.60
2022-11-18T22:56:35.087Z,2.88
2022-11-18T23:01:22.732Z,2.85
2022-11-18T23:06:08.579Z,1.55
2022-11-18T23:10:53.616Z,2.20
2022-11-18T23:15:41.612Z,1.63
2022-11-18T23:20:26.671Z,1.52
2022-11-18T23:25:12.146Z,1.25
2022-11-18T23:29:57.851Z,1.98
2022-11-18T23:34:45.743Z,10.30
2022-11-18T23:39:30.811Z,6.40
2022-11-18T23:44:16.094Z,6.78
2022-11-18T23:49:01.480Z,4.80
2022-11-18T23:53:50.851Z,3.33
2022-11-18T23:58:36.056Z,5.70
